Time;durP1;ratioP1;P1;durP2;ratioP2;P2;SDS_P1;SDS_P2;PMS_P1;PMS_P2;Temp;Humidity;BMP_temperature;BMP_pressure;BME280_temperature;BME280_humidity;BME280_pressure;Samples;Min_cycle;Max_cycle;Signal;HPM_P1;HPM_P2
2021/09/28 00:00:12;;;;;;;10.07;5.00;;;;;;;12.07;63.31;100640.59;4982254;28;20092;-81
2021/09/28 00:02:41;;;;;;;7.90;4.22;;;;;;;12.03;63.19;100645.28;5015459;28;20658;-80
2021/09/28 00:05:09;;;;;;;6.35;4.43;;;;;;;12.03;63.22;100645.28;5016867;28;20128;-80
2021/09/28 00:07:38;;;;;;;7.75;4.97;;;;;;;12.01;63.16;100644.56;5015520;28;20057;-82
2021/09/28 00:10:07;;;;;;;6.38;4.57;;;;;;;11.99;63.19;100642.94;4998519;28;20046;-82
2021/09/28 00:12:34;;;;;;;8.25;4.85;;;;;;;11.93;63.31;100644.25;5016492;28;20077;-81
2021/09/28 00:15:01;;;;;;;8.55;5.40;;;;;;;11.91;63.41;100651.44;4983783;28;20429;-81
2021/09/28 00:17:31;;;;;;;7.40;4.63;;;;;;;11.89;63.48;100655.16;5017192;28;20056;-81
2021/09/28 00:20:01;;;;;;;10.02;5.70;;;;;;;11.84;63.56;100655.47;5018280;28;20049;-80
2021/09/28 00:22:28;;;;;;;7.72;4.47;;;;;;;11.82;63.64;100647.63;4999861;28;20060;-81
2021/09/28 00:24:57;;;;;;;9.02;5.05;;;;;;;11.82;63.70;100641.50;5016530;28;20050;-82
2021/09/28 00:27:24;;;;;;;9.13;5.57;;;;;;;11.81;63.65;100638.00;4982917;28;20054;-82
2021/09/28 00:29:51;;;;;;;6.45;5.03;;;;;;;11.81;63.66;100639.78;5018337;28;20062;-80
2021/09/28 00:32:18;;;;;;;9.43;5.63;;;;;;;11.80;63.85;100632.81;5017354;28;20042;-81
2021/09/28 00:34:55;;;;;;;9.23;5.15;;;;;;;11.81;63.64;100629.22;5018078;28;20042;-81
2021/09/28 00:37:22;;;;;;;9.15;4.82;;;;;;;11.78;63.73;100632.09;5017659;28;20049;-81
2021/09/28 00:39:49;;;;;;;8.35;5.10;;;;;;;11.77;63.70;100627.75;5016261;28;20579;-82
2021/09/28 00:42:18;;;;;;;9.50;4.85;;;;;;;11.75;63.82;100629.66;5000236;28;20079;-80
2021/09/28 00:44:46;;;;;;;8.57;5.18;;;;;;;11.73;63.86;100626.28;5019606;28;20042;-82
2021/09/28 00:47:15;;;;;;;8.52;4.85;;;;;;;11.70;63.85;100632.63;5022103;28;20045;-83
2021/09/28 00:49:43;;;;;;;7.70;4.57;;;;;;;11.71;63.79;100630.84;5026977;28;20046;-81
2021/09/28 00:52:12;;;;;;;6.75;4.78;;;;;;;11.72;63.72;100628.09;5032403;28;20458;-79
2021/09/28 00:54:40;;;;;;;9.30;5.47;;;;;;;11.66;64.07;100626.69;5019203;28;20113;-79
2021/09/28 00:57:07;;;;;;;11.07;7.07;;;;;;;11.65;64.02;100626.84;5014557;28;20046;-80
2021/09/28 00:59:38;;;;;;;8.20;5.40;;;;;;;11.61;64.18;100612.13;5021365;28;20075;-82
2021/09/28 01:02:06;;;;;;;7.55;4.30;;;;;;;11.62;64.09;100616.47;5023553;28;20057;-81
2021/09/28 01:04:34;;;;;;;6.28;4.60;;;;;;;11.60;64.09;100616.56;5023408;28;20056;-81
2021/09/28 01:07:02;;;;;;;7.07;5.25;;;;;;;11.60;64.08;100615.72;5012707;28;20060;-79
2021/09/28 01:09:30;;;;;;;8.00;5.57;;;;;;;11.60;64.25;100615.72;5017043;28;20060;-81
2021/09/28 01:11:58;;;;;;;7.40;5.45;;;;;;;11.58;64.13;100615.84;4999197;28;20057;-81
2021/09/28 01:14:25;;;;;;;8.00;5.25;;;;;;;11.58;64.07;100621.13;5023651;28;20069;-81
2021/09/28 01:16:54;;;;;;;9.05;5.25;;;;;;;11.59;64.06;100616.66;5029541;28;20069;-83
2021/09/28 01:19:21;;;;;;;10.73;5.30;;;;;;;11.58;64.16;100620.28;5032859;28;20097;-81
2021/09/28 01:21:51;;;;;;;8.40;5.07;;;;;;;11.60;64.09;100619.22;5031014;28;20098;-82
2021/09/28 01:24:19;;;;;;;8.07;5.03;;;;;;;11.61;63.86;100617.41;5030054;28;20034;-82
2021/09/28 01:26:46;;;;;;;11.15;6.70;;;;;;;11.61;63.95;100618.28;5013102;28;20105;-83
2021/09/28 01:29:14;;;;;;;9.45;5.10;;;;;;;11.59;64.19;100622.78;5032124;28;20045;-82
2021/09/28 01:31:41;;;;;;;8.43;5.20;;;;;;;11.57;64.21;100616.78;5016642;28;20045;-81
2021/09/28 01:34:09;;;;;;;9.32;6.35;;;;;;;11.56;64.20;100625.69;5026171;28;20050;-82
2021/09/28 01:36:36;;;;;;;9.38;6.10;;;;;;;11.55;64.10;100620.50;5030359;28;20048;-81
2021/09/28 01:39:05;;;;;;;8.43;5.13;;;;;;;11.53;64.29;100620.59;5017892;28;20040;-81
2021/09/28 01:41:33;;;;;;;7.80;4.72;;;;;;;11.54;64.12;100619.66;5029459;28;20034;-82
2021/09/28 01:44:14;;;;;;;8.10;5.82;;;;;;;11.54;64.14;100630.25;5013504;28;20098;-83
2021/09/28 01:46:43;;;;;;;9.80;5.18;;;;;;;11.54;63.87;100624.09;5026318;28;20066;-82
2021/09/28 01:49:13;;;;;;;8.80;5.50;;;;;;;11.52;64.27;100631.28;5030334;28;20052;-80
2021/09/28 01:51:46;;;;;;;6.28;4.30;;;;;;;11.53;64.21;100625.06;5026988;28;20233;-82
2021/09/28 01:54:20;;;;;;;10.52;5.38;;;;;;;11.52;64.11;100628.63;4996681;28;20101;-81
2021/09/28 01:56:52;;;;;;;9.38;5.10;;;;;;;11.52;64.07;100621.53;5026605;28;20058;-82
2021/09/28 01:59:20;;;;;;;11.25;5.10;;;;;;;11.51;64.15;100625.16;5033548;28;20105;-81
2021/09/28 02:01:47;;;;;;;7.80;4.78;;;;;;;11.47;63.98;100621.03;5014313;28;20057;-80
2021/09/28 02:04:14;;;;;;;8.23;5.20;;;;;;;11.47;64.16;100621.03;5030841;28;20068;-82
2021/09/28 02:06:41;;;;;;;5.85;4.95;;;;;;;11.47;64.14;100624.53;5012730;28;20052;-80
2021/09/28 02:09:14;;;;;;;9.55;5.65;;;;;;;11.47;64.22;100626.34;5030700;28;20085;-80
2021/09/28 02:11:43;;;;;;;9.00;5.20;;;;;;;11.44;64.05;100630.03;5014454;28;20053;-82
2021/09/28 02:14:10;;;;;;;13.45;5.45;;;;;;;11.42;64.15;100624.00;5027163;28;20145;-81
2021/09/28 02:16:38;;;;;;;10.13;5.45;;;;;;;11.40;64.21;100625.06;5013185;28;20041;-81
2021/09/28 02:19:06;;;;;;;8.80;5.43;;;;;;;11.39;64.23;100623.38;5013692;28;20050;-81
2021/09/28 02:21:33;;;;;;;9.02;5.05;;;;;;;11.36;64.23;100613.88;5014283;28;20054;-81
2021/09/28 02:24:00;;;;;;;7.93;4.93;;;;;;;11.37;64.10;100620.00;5014664;28;20053;-81
2021/09/28 02:26:27;;;;;;;8.68;4.30;;;;;;;11.33;64.06;100618.53;4998443;28;20584;-81
2021/09/28 02:28:56;;;;;;;9.15;5.38;;;;;;;11.31;64.36;100615.97;5014836;28;20061;-79
2021/09/28 02:31:24;;;;;;;9.48;5.97;;;;;;;11.31;64.19;100620.41;5014221;28;20108;-81
2021/09/28 02:33:51;;;;;;;8.38;4.90;;;;;;;11.31;64.05;100615.13;5013996;28;20049;-80
2021/09/28 02:36:19;;;;;;;8.05;5.13;;;;;;;11.30;64.13;100622.22;5014146;28;20694;-82
2021/09/28 02:38:47;;;;;;;10.05;4.88;;;;;;;11.27;64.13;100625.94;5015316;28;20058;-81
2021/09/28 02:41:14;;;;;;;5.82;4.72;;;;;;;11.25;64.13;100630.47;4995056;28;20092;-82
2021/09/28 02:43:42;;;;;;;8.80;4.70;;;;;;;11.24;64.24;100627.94;5012548;28;20049;-80
2021/09/28 02:46:11;;;;;;;7.43;5.10;;;;;;;11.21;64.30;100621.03;5001663;28;20076;-80
2021/09/28 02:48:41;;;;;;;8.07;5.13;;;;;;;11.18;64.28;100623.91;5015038;28;20054;-81
2021/09/28 02:51:09;;;;;;;9.32;5.47;;;;;;;11.14;64.36;100630.34;5015575;28;20686;-83
2021/09/28 02:53:36;;;;;;;6.40;5.40;;;;;;;11.12;64.57;100626.97;5017154;28;20050;-81
2021/09/28 02:56:04;;;;;;;7.57;4.63;;;;;;;11.09;64.52;100627.16;5015892;28;20046;-81
2021/09/28 02:58:31;;;;;;;7.15;5.13;;;;;;;11.08;64.51;100620.22;5018298;28;20066;-81
2021/09/28 03:00:58;;;;;;;9.63;4.93;;;;;;;11.06;64.37;100616.84;5016775;28;20060;-82
2021/09/28 03:03:28;;;;;;;8.40;4.72;;;;;;;11.01;64.49;100609.22;5016801;28;20057;-82
2021/09/28 03:05:55;;;;;;;7.65;5.68;;;;;;;10.99;64.67;100610.28;5015904;28;20046;-81
2021/09/28 03:08:25;;;;;;;7.22;5.53;;;;;;;10.96;64.73;100618.41;5026485;28;20046;-82
2021/09/28 03:10:52;;;;;;;10.30;6.20;;;;;;;10.94;64.56;100613.22;5015549;28;20060;-80
2021/09/28 03:13:24;;;;;;;8.30;5.70;;;;;;;10.90;64.79;100615.22;4979471;28;20058;-80
2021/09/28 03:15:51;;;;;;;6.78;4.55;;;;;;;10.88;64.81;100617.13;5016190;28;20664;-81
2021/09/28 03:18:19;;;;;;;8.98;7.05;;;;;;;10.88;64.76;100626.88;4997176;28;20060;-81
2021/09/28 03:20:48;;;;;;;9.80;5.47;;;;;;;10.87;64.90;100622.50;5015008;28;20513;-81
2021/09/28 03:23:15;;;;;;;7.50;5.03;;;;;;;10.83;64.72;100616.59;5015708;28;20049;-80
2021/09/28 03:25:42;;;;;;;9.38;5.82;;;;;;;10.82;64.73;100614.91;5016345;28;20049;-80
2021/09/28 03:28:15;;;;;;;8.68;5.60;;;;;;;10.82;64.77;100625.47;4998955;28;20056;-81
2021/09/28 03:30:42;;;;;;;8.43;6.10;;;;;;;10.82;64.68;100624.63;5032592;28;20038;-82
2021/09/28 03:33:09;;;;;;;10.73;6.55;;;;;;;10.80;64.80;100621.22;5023886;28;20518;-82
2021/09/28 03:35:37;;;;;;;7.80;5.40;;;;;;;10.80;64.71;100635.28;5015294;28;20057;-80
2021/09/28 03:38:07;;;;;;;9.45;6.10;;;;;;;10.80;64.83;100632.63;5016030;28;20054;-80
2021/09/28 03:40:36;;;;;;;8.60;6.18;;;;;;;10.78;64.65;100629.25;5014854;28;20132;-81
2021/09/28 03:43:06;;;;;;;8.75;6.28;;;;;;;10.77;64.60;100635.50;5013183;28;20405;-80
2021/09/28 03:45:33;;;;;;;11.60;6.00;;;;;;;10.77;64.69;100632.00;5014338;28;20046;-81
2021/09/28 03:48:00;;;;;;;10.10;6.10;;;;;;;10.73;64.71;100626.06;5015956;28;20050;-82
2021/09/28 03:50:32;;;;;;;9.40;6.55;;;;;;;10.72;64.87;100629.69;5024413;28;20045;-84
2021/09/28 03:53:00;;;;;;;10.77;6.25;;;;;;;10.70;64.82;100634.22;5025725;28;20054;-83
2021/09/28 03:55:28;;;;;;;14.88;6.53;;;;;;;10.69;64.75;100638.66;5015006;28;20064;-77
2021/09/28 03:57:57;;;;;;;9.32;6.05;;;;;;;10.70;64.72;100632.44;4984149;28;20042;-85
2021/09/28 04:00:24;;;;;;;11.07;6.63;;;;;;;10.68;64.78;100639.63;5015943;28;20572;-80
2021/09/28 04:02:51;;;;;;;8.20;5.45;;;;;;;10.66;64.76;100632.72;5012127;28;20053;-79
2021/09/28 04:05:18;;;;;;;8.13;5.72;;;;;;;10.60;64.78;100636.63;5011480;28;20132;-77
2021/09/28 04:07:45;;;;;;;8.68;5.70;;;;;;;10.57;64.72;100630.69;5011310;28;20685;-77
2021/09/28 04:10:13;;;;;;;9.73;6.80;;;;;;;10.56;65.06;100637.78;5010746;28;20049;-77
2021/09/28 04:12:41;;;;;;;9.18;6.43;;;;;;;10.55;65.35;100638.72;5008821;28;20125;-77
2021/09/28 04:15:09;;;;;;;9.88;7.68;;;;;;;10.54;65.09;100641.50;5009836;28;20058;-78
2021/09/28 04:17:36;;;;;;;10.65;6.53;;;;;;;10.51;65.19;100643.38;5012095;28;20050;-78
2021/09/28 04:20:05;;;;;;;11.77;6.40;;;;;;;10.50;65.10;100649.59;5010693;28;20045;-77
2021/09/28 04:22:33;;;;;;;8.45;5.60;;;;;;;10.50;64.83;100654.03;5009917;28;20061;-76
2021/09/28 04:25:04;;;;;;;10.82;6.43;;;;;;;10.50;65.12;100651.41;5011084;28;20053;-75
2021/09/28 04:27:32;;;;;;;7.63;5.70;;;;;;;10.48;65.06;100650.66;5015243;28;20314;-77
2021/09/28 04:30:01;;;;;;;8.75;5.93;;;;;;;10.46;65.02;100644.59;5011920;28;20141;-77
2021/09/28 04:32:28;;;;;;;7.05;5.43;;;;;;;10.45;65.06;100654.34;5012060;28;20049;-76
2021/09/28 04:34:55;;;;;;;8.18;6.03;;;;;;;10.47;64.96;100662.16;5017630;28;20042;-75
2021/09/28 04:37:23;;;;;;;8.10;5.93;;;;;;;10.46;65.03;100663.09;4992198;28;20061;-79
2021/09/28 04:39:50;;;;;;;8.23;5.75;;;;;;;10.45;65.03;100667.53;5020517;28;20051;-76
2021/09/28 04:42:18;;;;;;;10.63;6.88;;;;;;;10.44;65.23;100680.84;5029712;28;20109;-77
2021/09/28 04:44:45;;;;;;;8.10;6.40;;;;;;;10.45;65.13;100680.75;5021539;28;20049;-79
2021/09/28 04:47:13;;;;;;;10.65;5.85;;;;;;;10.46;65.14;100682.44;5015919;28;20618;-79
2021/09/28 04:49:40;;;;;;;8.80;6.20;;;;;;;10.48;65.05;100682.34;5024620;28;20053;-80
2021/09/28 04:52:08;;;;;;;13.27;6.50;;;;;;;10.51;64.89;100683.00;5022128;28;20658;-79
2021/09/28 04:54:37;;;;;;;11.02;6.65;;;;;;;10.55;64.94;100686.25;5013898;28;20060;-79
2021/09/28 04:57:05;;;;;;;12.20;7.45;;;;;;;10.57;64.96;100694.09;5015336;28;20128;-81
2021/09/28 04:59:32;;;;;;;8.77;6.28;;;;;;;10.60;64.98;100694.72;5012369;28;20556;-79
2021/09/28 05:01:59;;;;;;;8.52;6.47;;;;;;;10.64;64.83;100698.03;5015771;28;20050;-79
2021/09/28 05:04:32;;;;;;;13.00;8.95;;;;;;;10.71;65.05;100701.97;5014007;28;20045;-77
2021/09/28 05:06:59;;;;;;;12.73;6.57;;;;;;;10.79;64.77;100701.47;5011357;28;20104;-80
2021/09/28 05:09:27;;;;;;;12.38;6.72;;;;;;;10.85;64.72;100703.69;5016818;28;20057;-78
2021/09/28 05:11:55;;;;;;;12.52;8.57;;;;;;;10.94;64.62;100712.81;5009376;28;20498;-81
2021/09/28 05:14:23;;;;;;;10.00;6.43;;;;;;;11.04;64.32;100714.72;5014477;28;20386;-79
2021/09/28 05:16:50;;;;;;;11.00;6.25;;;;;;;11.14;64.05;100712.31;5024046;28;20528;-81
2021/09/28 05:19:17;;;;;;;10.02;7.65;;;;;;;11.25;63.79;100714.22;5028625;28;20057;-75
2021/09/28 05:21:46;;;;;;;11.15;6.35;;;;;;;11.35;63.72;100712.66;5029024;28;20045;-75
2021/09/28 05:24:12;;;;;;;12.35;6.63;;;;;;;11.41;63.60;100716.66;5030774;28;20097;-77
2021/09/28 05:26:39;;;;;;;9.75;5.90;;;;;;;11.48;63.32;100712.66;5021316;28;20054;-75
2021/09/28 05:29:07;;;;;;;8.20;6.25;;;;;;;11.56;63.35;100710.34;5007685;28;20513;-77
2021/09/28 05:31:34;;;;;;;11.05;7.13;;;;;;;11.66;63.20;100715.81;5009049;28;20052;-76
2021/09/28 05:34:01;;;;;;;8.95;5.63;;;;;;;11.71;63.01;100728.75;5009427;28;20576;-79
2021/09/28 05:36:28;;;;;;;7.95;5.90;;;;;;;11.76;63.01;100726.63;5009706;28;20058;-75
2021/09/28 05:38:57;;;;;;;11.98;6.80;;;;;;;11.77;63.12;100723.84;5008164;28;20054;-77
2021/09/28 05:41:24;;;;;;;10.18;6.35;;;;;;;11.82;62.86;100729.66;4989620;28;20054;-77
2021/09/28 05:43:51;;;;;;;12.25;9.20;;;;;;;11.87;62.83;100724.06;5009251;28;20061;-78
2021/09/28 05:46:18;;;;;;;9.30;7.75;;;;;;;11.92;62.86;100721.97;5010201;28;20061;-79
2021/09/28 05:48:45;;;;;;;12.15;7.32;;;;;;;11.97;62.66;100725.13;5007654;28;20591;-77
2021/09/28 05:51:17;;;;;;;10.25;6.43;;;;;;;12.04;62.57;100726.38;5008186;28;20049;-77
2021/09/28 05:53:45;;;;;;;8.50;5.78;;;;;;;12.11;62.63;100725.97;5005654;28;20046;-79
2021/09/28 05:56:15;;;;;;;9.15;5.93;;;;;;;12.19;62.39;100728.88;5007149;28;20084;-77
2021/09/28 05:58:42;;;;;;;8.52;6.28;;;;;;;12.23;62.16;100725.91;4992294;28;20045;-77
2021/09/28 06:01:09;;;;;;;10.75;7.90;;;;;;;12.30;62.26;100736.94;5011829;28;20042;-78
2021/09/28 06:03:36;;;;;;;9.32;6.45;;;;;;;12.36;61.84;100736.47;5012356;28;20470;-75
2021/09/28 06:06:07;;;;;;;8.90;6.75;;;;;;;12.42;61.43;100741.34;5006604;28;20054;-77
2021/09/28 06:08:35;;;;;;;9.40;5.22;;;;;;;12.49;61.44;100747.03;5006488;28;20057;-75
2021/09/28 06:11:02;;;;;;;9.20;5.50;;;;;;;12.55;61.29;100751.91;5009286;28;20118;-76
2021/09/28 06:13:31;;;;;;;7.15;4.90;;;;;;;12.63;61.16;100748.69;5006352;28;20057;-78
2021/09/28 06:15:59;;;;;;;7.18;4.93;;;;;;;12.69;60.99;100748.22;5011063;28;20665;-78
2021/09/28 06:18:28;;;;;;;8.15;5.75;;;;;;;12.80;60.72;100752.72;5021077;28;20030;-77
2021/09/28 06:20:55;;;;;;;10.43;5.88;;;;;;;12.90;60.40;100766.16;5018417;28;20421;-76
2021/09/28 06:23:22;;;;;;;6.32;4.05;;;;;;;12.99;60.19;100768.13;5015347;28;20057;-76
2021/09/28 06:25:50;;;;;;;7.10;5.10;;;;;;;13.04;60.10;100763.34;5018540;28;20062;-75
2021/09/28 06:28:18;;;;;;;10.57;5.85;;;;;;;13.13;59.91;100767.94;5016365;28;20056;-76
2021/09/28 06:30:48;;;;;;;8.93;5.40;;;;;;;13.28;59.52;100768.59;5010764;28;20058;-76
2021/09/28 06:33:16;;;;;;;6.63;5.32;;;;;;;13.36;59.50;100768.03;5010423;28;20050;-77
2021/09/28 06:35:43;;;;;;;7.15;5.15;;;;;;;13.41;59.42;100770.34;4977859;28;20050;-78
2021/09/28 06:38:10;;;;;;;9.15;5.28;;;;;;;13.44;59.15;100765.66;5023703;28;20072;-78
2021/09/28 06:40:37;;;;;;;7.93;5.15;;;;;;;13.50;59.05;100767.81;5016020;28;20065;-76
2021/09/28 06:43:06;;;;;;;6.22;5.28;;;;;;;13.59;58.75;100776.88;5007221;28;20045;-77
2021/09/28 06:45:34;;;;;;;7.00;4.68;;;;;;;13.71;58.49;100772.44;5006200;28;20112;-78
2021/09/28 06:48:04;;;;;;;7.85;5.45;;;;;;;13.78;58.32;100773.66;5005834;28;20477;-77
2021/09/28 06:50:32;;;;;;;6.18;4.60;;;;;;;13.86;58.31;100781.03;5007031;28;20050;-78
2021/09/28 06:52:59;;;;;;;7.72;5.65;;;;;;;13.98;57.82;100784.56;5006546;28;20133;-77
2021/09/28 06:55:29;;;;;;;9.98;4.90;;;;;;;14.09;57.63;100782.72;5006757;28;20060;-78
2021/09/28 06:57:57;;;;;;;6.75;4.30;;;;;;;14.16;57.45;100783.09;5019186;28;20058;-78
2021/09/28 07:00:25;;;;;;;7.90;4.72;;;;;;;14.15;57.27;100797.31;5027424;28;20046;-78
2021/09/28 07:02:53;;;;;;;6.70;4.47;;;;;;;14.12;57.46;100789.63;5009041;28;20046;-76
2021/09/28 07:05:21;;;;;;;6.85;4.43;;;;;;;14.17;57.31;100786.59;5021141;28;20080;-75
2021/09/28 07:07:48;;;;;;;8.60;4.47;;;;;;;14.20;57.43;100789.84;5009452;28;20132;-77
2021/09/28 07:10:15;;;;;;;6.03;5.22;;;;;;;14.24;57.23;100796.63;5024535;28;20510;-83
2021/09/28 07:12:42;;;;;;;6.53;4.63;;;;;;;14.33;57.02;100795.91;5009348;28;20046;-73
2021/09/28 07:15:11;;;;;;;8.23;5.68;;;;;;;14.36;56.94;100802.75;5016446;28;20076;-77
2021/09/28 07:17:38;;;;;;;8.65;4.43;;;;;;;14.35;56.96;100798.44;5009491;28;20189;-79
2021/09/28 07:20:06;;;;;;;6.47;4.45;;;;;;;14.39;56.68;100799.03;5006569;28;20061;-75
2021/09/28 07:22:35;;;;;;;8.15;4.63;;;;;;;14.43;56.69;100803.13;4991907;28;20148;-78
2021/09/28 07:25:03;;;;;;;6.38;4.38;;;;;;;14.47;56.32;100812.53;5020708;28;20603;-78
2021/09/28 07:27:31;;;;;;;7.63;3.95;;;;;;;14.59;56.31;100808.09;5004453;28;20045;-76
2021/09/28 07:29:59;;;;;;;7.93;5.45;;;;;;;14.69;56.09;100817.00;4988112;28;20629;-77
2021/09/28 07:32:31;;;;;;;6.80;4.57;;;;;;;14.74;55.90;100817.47;5009560;28;20042;-77
2021/09/28 07:35:00;;;;;;;6.18;4.57;;;;;;;14.77;55.79;100819.06;4980894;28;20053;-75
2021/09/28 07:40:16;;;;;;;7.97;4.68;;;;;;;15.03;55.56;100825.72;5018253;28;20042;-76
2021/09/28 07:42:43;;;;;;;8.43;4.82;;;;;;;15.17;55.10;100827.25;5015231;28;20045;-79
2021/09/28 07:45:13;;;;;;;6.43;4.47;;;;;;;15.41;54.83;100829.72;5018087;28;20058;-76
2021/09/28 07:47:45;;;;;;;6.78;4.18;;;;;;;15.56;54.52;100824.91;5012719;28;20048;-77
2021/09/28 07:53:09;;;;;;;6.78;4.63;;;;;;;15.67;54.30;100824.84;4998683;28;20038;-77
2021/09/28 07:55:44;;;;;;;5.53;4.13;;;;;;;15.80;54.04;100821.16;5012439;28;20057;-79
2021/09/28 07:58:20;;;;;;;5.75;4.32;;;;;;;15.90;53.71;100830.06;5014079;28;20138;-78
2021/09/28 08:00:49;;;;;;;5.70;4.45;;;;;;;15.95;53.38;100840.31;4970778;28;20046;-77
2021/09/28 08:03:17;;;;;;;6.53;5.40;;;;;;;15.98;53.21;100837.38;4979191;28;20041;-78
2021/09/28 08:05:49;;;;;;;5.85;4.32;;;;;;;16.03;53.11;100836.00;5011178;28;20054;-78
2021/09/28 08:08:16;;;;;;;6.07;3.72;;;;;;;16.14;53.10;100832.41;5010722;28;20478;-77
2021/09/28 08:10:46;;;;;;;6.28;4.32;;;;;;;16.22;52.91;100829.06;5008271;28;20065;-77
2021/09/28 08:13:14;;;;;;;5.40;3.22;;;;;;;16.24;52.65;100840.44;5007970;28;20054;-78
2021/09/28 08:15:42;;;;;;;6.10;4.18;;;;;;;16.33;52.51;100839.66;5009733;28;20055;-76
2021/09/28 08:18:11;;;;;;;5.72;3.92;;;;;;;16.43;52.20;100837.03;5008805;28;20041;-77
2021/09/28 08:20:47;;;;;;;5.40;3.40;;;;;;;16.57;52.13;100844.66;5016524;28;20033;-79
2021/09/28 08:23:17;;;;;;;4.95;3.53;;;;;;;16.59;51.75;100840.03;5019082;28;20049;-78
2021/09/28 08:29:08;;;;;;;6.95;4.18;;;;;;;16.67;51.98;100846.50;5020730;28;20049;-78
2021/09/28 08:31:32;;;;;;;7.70;3.85;;;;;;;16.79;51.67;100848.06;5004693;28;20072;-77
2021/09/28 08:33:59;;;;;;;6.93;5.22;;;;;;;16.72;51.51;100846.94;5021748;28;20051;-79
2021/09/28 08:36:26;;;;;;;8.13;4.78;;;;;;;16.79;51.34;100859.59;5019201;28;20077;-78
2021/09/28 08:38:53;;;;;;;4.85;3.63;;;;;;;16.85;51.22;100858.22;5013292;28;20490;-78
2021/09/28 08:41:23;;;;;;;7.13;3.83;;;;;;;17.00;50.98;100853.34;5013696;28;20096;-77
2021/09/28 08:43:50;;;;;;;5.90;4.45;;;;;;;17.07;50.75;100845.59;5013259;28;20653;-77
2021/09/28 08:46:18;;;;;;;5.55;3.30;;;;;;;17.05;50.72;100850.25;5013777;28;20049;-76
2021/09/28 08:48:47;;;;;;;4.90;3.15;;;;;;;17.00;50.64;100840.00;5012949;28;20669;-75
2021/09/28 08:51:15;;;;;;;4.65;3.72;;;;;;;16.95;50.81;100829.72;5011471;28;20060;-77
2021/09/28 08:53:42;;;;;;;5.32;3.47;;;;;;;16.99;50.84;100839.13;5011481;28;20050;-76
2021/09/28 08:56:11;;;;;;;5.75;3.80;;;;;;;17.04;50.47;100845.91;5009185;28;20068;-76
2021/09/28 08:58:56;;;;;;;5.28;4.70;;;;;;;17.20;50.16;100836.34;5009243;28;20353;-76
2021/09/28 09:01:24;;;;;;;10.35;4.43;;;;;;;17.44;49.96;100839.59;5011112;28;20050;-77
2021/09/28 09:03:51;;;;;;;5.05;4.15;;;;;;;17.60;49.71;100831.84;5009676;28;20682;-79
2021/09/28 09:06:18;;;;;;;5.22;3.45;;;;;;;17.68;49.37;100833.78;5012047;28;20417;-77
2021/09/28 09:08:48;;;;;;;4.53;3.45;;;;;;;17.58;49.46;100836.50;5006574;28;20050;-76
2021/09/28 09:11:18;;;;;;;4.60;3.70;;;;;;;17.53;49.64;100828.06;5007248;28;20057;-77
2021/09/28 09:13:49;;;;;;;3.50;2.65;;;;;;;17.49;49.67;100834.66;5004294;28;20124;-75
2021/09/28 09:16:19;;;;;;;6.65;3.13;;;;;;;17.53;49.61;100828.06;5006267;28;20050;-77
2021/09/28 09:18:50;;;;;;;5.07;3.63;;;;;;;17.60;49.43;100829.16;5005656;28;20046;-78
2021/09/28 09:21:17;;;;;;;5.88;3.55;;;;;;;17.70;49.22;100832.69;5007029;28;20060;-78
2021/09/28 09:23:46;;;;;;;9.32;4.25;;;;;;;17.90;49.05;100821.97;5007552;28;20077;-77
2021/09/28 09:26:15;;;;;;;4.47;3.58;;;;;;;18.18;48.72;100825.53;5005095;28;20069;-79
2021/09/28 09:28:45;;;;;;;4.22;3.78;;;;;;;18.43;47.96;100829.34;5007698;28;20058;-77
2021/09/28 09:31:21;;;;;;;6.40;4.57;;;;;;;18.66;48.11;100827.13;5010133;28;20045;-78
2021/09/28 09:33:49;;;;;;;6.35;4.75;;;;;;;18.82;47.34;100826.50;5006673;28;20046;-78
2021/09/28 09:36:18;;;;;;;5.68;3.47;;;;;;;18.98;47.00;100819.63;5007598;28;20088;-78
2021/09/28 09:38:48;;;;;;;4.88;3.63;;;;;;;19.15;47.44;100832.16;5007050;28;20050;-76
2021/09/28 09:41:16;;;;;;;5.10;3.67;;;;;;;19.17;46.98;100826.66;5005902;28;20467;-80
2021/09/28 09:43:48;;;;;;;5.05;2.85;;;;;;;19.13;46.40;100825.31;5005691;28;20042;-79
2021/09/28 09:46:19;;;;;;;3.90;3.05;;;;;;;19.08;46.32;100828.41;5010732;28;20050;-80
2021/09/28 09:48:48;;;;;;;6.55;3.65;;;;;;;19.13;46.15;100828.81;5006138;28;20052;-79
2021/09/28 09:51:16;;;;;;;5.90;3.28;;;;;;;19.08;45.31;100825.75;5006297;28;20041;-79
2021/09/28 09:53:58;;;;;;;5.97;2.75;;;;;;;19.10;45.84;100827.28;5004954;28;20129;-78
2021/09/28 09:56:41;;;;;;;4.20;2.75;;;;;;;19.13;45.36;100820.78;5004713;28;20129;-75
2021/09/28 09:59:08;;;;;;;11.57;3.35;;;;;;;19.09;45.64;100830.94;5004356;28;20057;-76
2021/09/28 10:01:39;;;;;;;4.72;3.13;;;;;;;19.11;45.31;100833.47;5006449;28;20651;-77
2021/09/28 10:04:07;;;;;;;6.70;3.20;;;;;;;19.06;45.42;100830.41;5005761;28;20052;-76
2021/09/28 10:06:34;;;;;;;5.13;2.90;;;;;;;19.01;45.28;100830.03;5006107;28;20046;-77
2021/09/28 10:09:02;;;;;;;6.40;2.60;;;;;;;18.99;45.51;100835.53;5005898;28;20052;-76
2021/09/28 10:11:35;;;;;;;4.97;3.00;;;;;;;19.07;45.57;100822.22;5005391;28;20649;-75
2021/09/28 10:14:06;;;;;;;6.85;3.17;;;;;;;19.13;44.70;100830.66;5007007;28;20144;-76
2021/09/28 10:16:44;;;;;;;4.93;3.08;;;;;;;19.24;44.63;100828.56;5009894;28;20057;-78
2021/09/28 10:19:44;;;;;;;3.65;2.95;;;;;;;19.31;44.64;100828.81;5009748;28;20046;-75
2021/09/28 10:22:55;;;;;;;8.32;5.40;;;;;;;19.34;44.27;100833.00;5011904;28;20113;-79
2021/09/28 10:25:37;;;;;;;5.57;3.58;;;;;;;19.29;44.26;100830.81;5010355;28;20072;-78
2021/09/28 10:28:28;;;;;;;5.00;3.05;;;;;;;19.20;44.13;100837.09;5013887;28;20040;-78
2021/09/28 10:30:55;;;;;;;4.90;3.40;;;;;;;19.19;44.30;100836.22;5008889;28;20117;-76
2021/09/28 10:33:40;;;;;;;5.75;3.83;;;;;;;19.44;44.66;100828.41;5007140;28;20418;-77
2021/09/28 10:36:11;;;;;;;6.50;3.47;;;;;;;19.45;44.01;100833.63;5012061;28;20066;-78
2021/09/28 10:38:59;;;;;;;4.63;2.40;;;;;;;19.35;44.09;100840.88;5010077;28;20030;-77
2021/09/28 10:41:42;;;;;;;3.25;2.60;;;;;;;19.55;43.49;100838.88;5005220;28;20069;-78
2021/09/28 10:44:50;;;;;;;7.13;2.22;;;;;;;19.67;43.14;100828.75;4989232;28;20049;-78
2021/09/28 10:47:52;;;;;;;4.25;2.35;;;;;;;19.80;43.16;100833.72;5005189;28;20056;-77
2021/09/28 10:50:42;;;;;;;3.67;2.25;;;;;;;19.70;42.44;100824.91;4933628;29;20055;-76
2021/09/28 10:53:31;;;;;;;3.05;2.45;;;;;;;19.61;43.07;100824.88;4926435;29;20051;-77
2021/09/28 10:56:01;;;;;;;4.53;2.80;;;;;;;19.58;42.80;100825.16;4929999;29;20050;-76
2021/09/28 10:58:32;;;;;;;3.47;2.30;;;;;;;19.64;43.10;100823.69;4933519;29;20063;-78
2021/09/28 11:01:12;;;;;;;4.75;2.50;;;;;;;19.83;42.83;100820.03;4915256;29;20344;-77
2021/09/28 11:04:25;;;;;;;4.88;2.75;;;;;;;19.99;42.66;100822.78;4931303;29;20055;-77
2021/09/28 11:07:01;;;;;;;2.25;1.70;;;;;;;19.95;42.97;100821.44;4931386;29;20052;-78
2021/09/28 11:09:54;;;;;;;5.40;2.40;;;;;;;19.79;42.28;100832.03;4930014;29;20115;-76
2021/09/28 11:12:24;;;;;;;3.25;2.25;;;;;;;19.70;42.62;100820.41;4927175;29;20056;-75
2021/09/28 11:14:59;;;;;;;3.97;2.28;;;;;;;19.72;42.76;100821.09;4949474;28;20362;-78
2021/09/28 11:17:26;;;;;;;;;;;;;;;20.14;42.27;100819.53;4970194;28;20050;-79
2021/09/28 11:19:53;;;;;;;5.03;2.67;;;;;;;19.83;42.40;100818.16;4971830;28;20087;-78
2021/09/28 11:22:23;;;;;;;4.43;2.88;;;;;;;19.91;42.70;100820.06;4969306;28;20057;-76
2021/09/28 11:24:50;;;;;;;5.75;2.30;;;;;;;19.92;42.46;100821.75;4979940;28;20462;-78
2021/09/28 11:27:18;;;;;;;8.55;2.45;;;;;;;19.93;42.22;100820.72;5009916;28;20658;-78
2021/09/28 11:29:45;;;;;;;4.75;2.10;;;;;;;19.87;42.99;100813.34;5011957;28;20060;-78
2021/09/28 11:32:13;;;;;;;4.15;2.15;;;;;;;19.86;42.79;100808.97;5012066;28;20042;-75
2021/09/28 11:34:44;;;;;;;4.32;2.88;;;;;;;19.78;42.79;100812.44;5010648;28;20129;-81
2021/09/28 11:37:11;;;;;;;5.05;2.50;;;;;;;19.82;43.00;100811.13;5012814;28;20064;-74
2021/09/28 11:39:44;;;;;;;4.50;2.45;;;;;;;19.99;43.03;100817.44;5012152;28;20049;-78
2021/09/28 11:42:12;;;;;;;2.70;2.50;;;;;;;19.99;42.43;100816.59;5006559;28;20046;-77
2021/09/28 11:44:45;;;;;;;4.07;2.42;;;;;;;19.86;42.58;100811.63;5008211;28;20089;-79